createdAt,value
2022-09-16T00:02:13.885Z,14.69
2022-09-16T00:04:43.747Z,14.68
2022-09-16T00:07:13.086Z,14.66
2022-09-16T00:09:42.505Z,14.64
2022-09-16T00:12:11.808Z,14.60
2022-09-16T00:14:41.108Z,14.57
2022-09-16T00:17:10.543Z,14.53
2022-09-16T00:19:39.792Z,14.53
2022-09-16T00:22:09.031Z,14.51
2022-09-16T00:24:38.537Z,14.54
2022-09-16T00:27:08.065Z,14.53
2022-09-16T00:29:37.498Z,14.50
2022-09-16T00:32:06.912Z,14.51
2022-09-16T00:34:36.512Z,14.55
2022-09-16T00:37:08.272Z,14.58
2022-09-16T00:39:38.481Z,14.60
2022-09-16T00:42:08.428Z,14.60
2022-09-16T00:45:08.909Z,14.59
2022-09-16T00:47:44.508Z,14.65
2022-09-16T00:50:36.436Z,14.67
2022-09-16T00:53:05.822Z,14.67
2022-09-16T00:55:38.866Z,14.75
2022-09-16T00:58:26.293Z,14.72
2022-09-16T01:00:55.690Z,14.76
2022-09-16T01:03:27.626Z,14.76
2022-09-16T01:05:57.049Z,14.74
2022-09-16T01:08:26.617Z,14.77
2022-09-16T01:10:55.957Z,14.79
2022-09-16T01:13:25.328Z,14.84
2022-09-16T01:16:09.437Z,14.85
2022-09-16T01:18:51.275Z,14.79
2022-09-16T01:21:41.645Z,14.80
2022-09-16T01:24:26.080Z,14.81
2022-09-16T01:27:23.000Z,14.82
2022-09-16T01:30:09.188Z,14.83
2022-09-16T01:33:05.011Z,14.85
2022-09-16T01:35:53.320Z,14.88
2022-09-16T01:38:47.495Z,14.91
2022-09-16T01:41:32.153Z,14.94
2022-09-16T01:44:47.672Z,14.91
2022-09-16T01:47:53.542Z,14.90
2022-09-16T01:50:33.294Z,14.90
2022-09-16T01:53:16.241Z,14.85
2022-09-16T01:55:53.956Z,14.75
2022-09-16T01:58:44.406Z,14.77
2022-09-16T02:01:23.636Z,14.83
2022-09-16T02:04:01.940Z,14.87
2022-09-16T02:06:33.319Z,14.87
2022-09-16T02:09:07.742Z,14.83
2022-09-16T02:11:41.687Z,14.76
2022-09-16T02:14:21.594Z,14.79
2022-09-16T02:17:04.705Z,14.84
2022-09-16T02:19:42.298Z,14.83
2022-09-16T02:22:16.455Z,14.84
2022-09-16T02:24:49.439Z,14.90
2022-09-16T02:27:22.296Z,14.89
2022-09-16T02:29:56.421Z,14.89
2022-09-16T02:32:28.695Z,14.88
2022-09-16T02:35:00.081Z,14.87
2022-09-16T02:37:34.083Z,14.91
2022-09-16T02:40:10.650Z,14.91
2022-09-16T02:42:40.092Z,14.87
2022-09-16T02:45:11.028Z,14.87
2022-09-16T02:47:49.176Z,14.83
2022-09-16T02:50:26.382Z,14.72
2022-09-16T02:53:07.060Z,14.67
2022-09-16T02:55:53.626Z,14.63
2022-09-16T02:58:23.019Z,14.59
2022-09-16T03:00:58.378Z,14.54
2022-09-16T03:03:28.227Z,14.38
2022-09-16T03:06:06.703Z,14.29
2022-09-16T03:08:37.669Z,14.29
2022-09-16T03:11:45.840Z,14.14
2022-09-16T03:14:27.433Z,14.00
2022-09-16T03:17:18.028Z,13.94
2022-09-16T03:20:05.918Z,13.93
2022-09-16T03:22:43.838Z,13.98
2022-09-16T03:25:43.066Z,14.00
2022-09-16T03:28:17.525Z,14.00
2022-09-16T03:31:12.932Z,13.96
2022-09-16T03:33:58.439Z,13.90
2022-09-16T03:36:34.153Z,13.86
2022-09-16T03:39:05.855Z,13.80
2022-09-16T03:41:37.433Z,13.76
2022-09-16T03:44:06.759Z,13.73
2022-09-16T03:46:36.070Z,13.72
2022-09-16T03:49:05.628Z,13.69
2022-09-16T03:51:34.901Z,13.67
2022-09-16T03:54:04.739Z,13.69
2022-09-16T03:56:33.984Z,13.67
2022-09-16T03:59:03.267Z,13.70
2022-09-16T04:01:32.592Z,13.72
2022-09-16T04:04:01.979Z,13.70
2022-09-16T04:06:31.273Z,13.63
2022-09-16T04:09:00.944Z,13.60
2022-09-16T04:11:32.268Z,13.63
2022-09-16T04:14:01.951Z,13.66
2022-09-16T04:16:31.356Z,13.68
2022-09-16T04:19:00.658Z,13.67
2022-09-16T04:21:30.520Z,13.71
2022-09-16T04:24:00.120Z,13.70
2022-09-16T04:26:29.524Z,13.71
2022-09-16T04:28:58.785Z,13.72
2022-09-16T04:31:28.262Z,13.64
2022-09-16T04:33:57.551Z,13.60
2022-09-16T04:36:26.811Z,13.59
2022-09-16T04:38:56.115Z,13.59
2022-09-16T04:41:29.094Z,13.58
2022-09-16T04:44:00.879Z,13.57
2022-09-16T04:46:32.518Z,13.53
2022-09-16T04:49:03.698Z,13.53
2022-09-16T04:51:33.083Z,13.56
2022-09-16T04:54:03.084Z,13.55
2022-09-16T04:56:35.475Z,13.51
2022-09-16T04:59:06.146Z,13.56
2022-09-16T05:01:38.414Z,13.55
2022-09-16T05:04:09.198Z,13.50
2022-09-16T05:06:44.590Z,13.48
2022-09-16T05:09:15.165Z,13.48
2022-09-16T05:11:47.312Z,13.48
2022-09-16T05:14:19.359Z,13.45
2022-09-16T05:16:49.212Z,13.48
2022-09-16T05:19:18.504Z,13.49
2022-09-16T05:21:47.960Z,13.61
2022-09-16T05:24:17.684Z,13.68
2022-09-16T05:26:46.940Z,13.73
2022-09-16T05:29:18.651Z,13.82
2022-09-16T05:31:49.587Z,13.83
2022-09-16T05:34:23.198Z,13.92
2022-09-16T05:36:54.111Z,13.95
2022-09-16T05:39:25.197Z,13.95
2022-09-16T05:42:03.304Z,13.96
2022-09-16T05:44:32.548Z,13.98
2022-09-16T05:47:02.421Z,14.03
2022-09-16T05:49:31.779Z,14.05
2022-09-16T05:52:01.104Z,14.03
2022-09-16T05:54:31.549Z,14.02
2022-09-16T05:57:05.983Z,14.05
2022-09-16T05:59:36.268Z,14.04
2022-09-16T06:02:05.624Z,14.04
2022-09-16T06:04:35.823Z,14.00
2022-09-16T06:07:05.610Z,14.08
2022-09-16T06:09:34.924Z,14.04
2022-09-16T06:12:04.334Z,14.10
2022-09-16T06:14:33.814Z,14.12
2022-09-16T06:17:03.214Z,14.14
2022-09-16T06:19:32.548Z,14.15
2022-09-16T06:22:01.899Z,14.10
2022-09-16T06:24:31.591Z,14.16
2022-09-16T06:27:00.847Z,14.23
2022-09-16T06:29:30.099Z,14.28
2022-09-16T06:31:59.426Z,14.34
2022-09-16T06:34:28.692Z,14.37
2022-09-16T06:36:58.122Z,14.29
2022-09-16T06:39:27.418Z,14.24
2022-09-16T06:41:56.733Z,14.29
2022-09-16T06:44:39.215Z,14.27
2022-09-16T06:47:08.577Z,14.24
2022-09-16T06:49:37.850Z,14.34
2022-09-16T06:52:08.362Z,14.47
2022-09-16T06:54:37.663Z,14.68
2022-09-16T06:57:11.900Z,14.85
2022-09-16T06:59:43.882Z,15.01
2022-09-16T07:02:13.831Z,15.04
2022-09-16T07:04:43.275Z,15.08
2022-09-16T07:07:12.710Z,15.05
2022-09-16T07:09:42.692Z,15.05
2022-09-16T07:12:14.227Z,15.09
2022-09-16T07:14:46.963Z,15.24
2022-09-16T07:17:16.364Z,15.37
2022-09-16T07:19:45.897Z,15.40
2022-09-16T07:22:15.189Z,15.36
2022-09-16T07:24:46.078Z,15.42
2022-09-16T07:27:15.375Z,15.41
2022-09-16T07:29:44.653Z,15.34
2022-09-16T07:32:14.071Z,15.23
2022-09-16T07:34:43.398Z,15.10
2022-09-16T07:37:13.682Z,15.19
2022-09-16T07:39:43.267Z,15.50
2022-09-16T07:42:12.527Z,15.79
2022-09-16T07:44:41.958Z,16.19
2022-09-16T07:47:11.529Z,16.46
2022-09-16T07:49:40.839Z,16.66
2022-09-16T07:52:10.683Z,16.65
2022-09-16T07:54:39.985Z,16.80
2022-09-16T07:57:09.247Z,17.15
2022-09-16T07:59:38.583Z,17.46
2022-09-16T08:02:08.978Z,17.60
2022-09-16T08:04:38.440Z,17.70
2022-09-16T08:07:08.978Z,17.74
2022-09-16T08:09:41.550Z,17.48
2022-09-16T08:12:12.864Z,17.59
2022-09-16T08:14:42.152Z,17.59
2022-09-16T08:17:13.843Z,17.34
2022-09-16T08:19:43.089Z,17.32
2022-09-16T08:22:12.317Z,17.55
2022-09-16T08:24:41.645Z,17.69
2022-09-16T08:27:11.009Z,17.92
2022-09-16T08:29:40.376Z,18.17
2022-09-16T08:32:10.070Z,18.20
2022-09-16T08:34:41.933Z,18.14
2022-09-16T08:37:13.908Z,18.19
2022-09-16T08:39:43.313Z,18.20
2022-09-16T08:42:31.124Z,18.10
2022-09-16T08:45:19.185Z,18.21
2022-09-16T08:47:56.957Z,18.30
2022-09-16T08:50:34.470Z,18.28
2022-09-16T08:53:09.616Z,18.10
2022-09-16T08:55:46.802Z,17.86
2022-09-16T08:58:18.127Z,17.77
2022-09-16T09:00:59.786Z,18.08
2022-09-16T09:03:44.483Z,18.28
2022-09-16T09:06:41.703Z,18.53
2022-09-16T09:09:24.916Z,18.34
2022-09-16T09:12:21.431Z,18.36
2022-09-16T09:15:12.034Z,18.33
2022-09-16T09:17:51.705Z,18.61
2022-09-16T09:21:01.753Z,18.67
2022-09-16T09:23:58.111Z,18.61
2022-09-16T09:26:50.510Z,18.85
2022-09-16T09:29:46.568Z,19.25
2022-09-16T09:32:49.376Z,19.75
2022-09-16T09:35:47.915Z,19.97
2022-09-16T09:38:51.489Z,19.83
2022-09-16T09:41:27.470Z,19.63
2022-09-16T09:44:02.603Z,19.57
2022-09-16T09:46:49.771Z,19.69
2022-09-16T09:49:38.374Z,19.95
2022-09-16T09:52:08.050Z,19.86
2022-09-16T09:54:39.225Z,19.54
2022-09-16T09:57:13.979Z,19.16
2022-09-16T09:59:49.534Z,18.85
2022-09-16T10:02:22.034Z,18.51
2022-09-16T10:04:52.205Z,18.31
2022-09-16T10:07:24.611Z,18.20
2022-09-16T10:10:20.604Z,18.12
2022-09-16T10:12:50.226Z,18.18
2022-09-16T10:15:31.854Z,18.05
2022-09-16T10:18:04.278Z,17.85
2022-09-16T10:20:38.009Z,17.65
2022-09-16T10:23:18.781Z,17.55
2022-09-16T10:25:48.241Z,17.44
2022-09-16T10:28:26.698Z,17.39
2022-09-16T10:30:58.191Z,17.37
2022-09-16T10:33:34.967Z,17.29
2022-09-16T10:36:10.933Z,17.25
2022-09-16T10:38:54.165Z,17.12
2022-09-16T10:41:32.589Z,16.88
2022-09-16T10:44:05.335Z,16.82
2022-09-16T10:46:35.004Z,16.68
2022-09-16T10:49:13.604Z,16.39
2022-09-16T10:51:44.731Z,16.05
2022-09-16T10:54:28.307Z,15.94
2022-09-16T10:56:57.668Z,16.21
2022-09-16T10:59:27.001Z,16.44
2022-09-16T11:02:28.918Z,16.74
2022-09-16T11:05:10.612Z,16.97
2022-09-16T11:07:52.448Z,17.23
2022-09-16T11:10:30.289Z,17.35
2022-09-16T11:13:21.855Z,17.41
2022-09-16T11:16:06.521Z,17.62
2022-09-16T11:18:52.970Z,18.07
2022-09-16T11:22:12.265Z,18.52
2022-09-16T11:25:06.897Z,18.86
2022-09-16T11:28:02.637Z,18.93
2022-09-16T11:30:37.959Z,19.14
2022-09-16T11:33:35.396Z,19.48
2022-09-16T11:36:17.316Z,19.81
2022-09-16T11:39:03.231Z,20.24
2022-09-16T11:41:44.655Z,20.55
2022-09-16T11:44:28.982Z,20.75
2022-09-16T11:47:22.071Z,20.59
2022-09-16T11:50:09.158Z,20.86
2022-09-16T11:52:52.933Z,20.74
2022-09-16T11:55:42.423Z,20.66
2022-09-16T11:58:26.961Z,20.16
2022-09-16T12:01:01.036Z,19.77
2022-09-16T12:03:52.039Z,19.27
2022-09-16T12:06:25.453Z,18.86
2022-09-16T12:09:13.015Z,18.35
2022-09-16T12:11:54.359Z,18.02
2022-09-16T12:14:33.063Z,17.88
2022-09-16T12:17:08.614Z,17.70
2022-09-16T12:19:46.435Z,17.69
2022-09-16T12:22:24.151Z,17.57
2022-09-16T12:25:11.960Z,17.49
2022-09-16T12:28:20.800Z,17.33
2022-09-16T12:30:56.260Z,17.27
2022-09-16T12:33:33.159Z,17.02
2022-09-16T12:36:10.948Z,16.94
2022-09-16T12:38:41.404Z,16.79
2022-09-16T12:41:26.300Z,16.73
2022-09-16T12:44:33.071Z,16.58
2022-09-16T12:47:24.371Z,16.56
2022-09-16T12:50:16.115Z,16.69
2022-09-16T12:52:54.826Z,17.16
2022-09-16T12:55:45.533Z,17.40
2022-09-16T12:58:23.973Z,17.65
2022-09-16T13:00:56.336Z,17.92
2022-09-16T13:03:28.979Z,18.17
2022-09-16T13:06:00.743Z,18.40
2022-09-16T13:08:35.518Z,18.56
2022-09-16T13:12:00.531Z,18.70
2022-09-16T13:14:02.184Z,18.51
2022-09-16T13:16:37.030Z,18.43
2022-09-16T13:19:30.312Z,18.35
2022-09-16T13:22:24.852Z,18.42
2022-09-16T13:25:01.399Z,18.71
2022-09-16T13:27:37.151Z,18.84
2022-09-16T13:30:12.551Z,18.94
2022-09-16T13:32:53.906Z,19.10
2022-09-16T13:35:23.224Z,19.15
2022-09-16T13:37:57.757Z,19.24
2022-09-16T13:40:32.890Z,19.32
2022-09-16T13:43:11.254Z,19.43
2022-09-16T13:45:47.094Z,19.65
2022-09-16T13:48:20.900Z,19.81
2022-09-16T13:50:55.701Z,19.76
2022-09-16T13:53:31.014Z,19.48
2022-09-16T13:56:51.322Z,19.30
2022-09-16T13:59:46.626Z,19.22
2022-09-16T14:02:29.470Z,19.18
2022-09-16T14:05:20.949Z,19.18
2022-09-16T14:08:21.690Z,19.05
2022-09-16T14:11:09.867Z,18.92
2022-09-16T14:14:00.808Z,18.91
2022-09-16T14:16:37.487Z,18.78
2022-09-16T14:19:19.048Z,18.64
2022-09-16T14:21:48.563Z,18.40
2022-09-16T14:24:17.789Z,18.25
2022-09-16T14:26:58.600Z,18.06
2022-09-16T14:29:28.265Z,17.94
2022-09-16T14:31:59.553Z,17.84
2022-09-16T14:34:36.691Z,17.61
2022-09-16T14:37:08.153Z,17.35
2022-09-16T14:39:49.160Z,17.33
2022-09-16T14:42:24.386Z,17.37
2022-09-16T14:44:58.203Z,17.49
2022-09-16T14:47:50.563Z,17.61
2022-09-16T14:50:34.289Z,17.72
2022-09-16T14:53:05.817Z,17.73
2022-09-16T14:55:41.687Z,17.59
2022-09-16T14:58:14.477Z,17.52
2022-09-16T15:00:52.971Z,17.45
2022-09-16T15:03:49.033Z,17.39
2022-09-16T15:06:22.849Z,17.48
2022-09-16T15:08:58.709Z,17.54
2022-09-16T15:11:47.734Z,17.58
2022-09-16T15:14:19.039Z,17.56
2022-09-16T15:16:52.390Z,17.47
2022-09-16T15:19:28.109Z,17.46
2022-09-16T15:21:59.287Z,17.43
2022-09-16T15:24:42.603Z,17.44
2022-09-16T15:27:12.603Z,17.46
2022-09-16T15:29:55.828Z,17.51
2022-09-16T15:32:28.243Z,17.50
2022-09-16T15:35:13.450Z,17.48
2022-09-16T15:37:43.326Z,17.16
2022-09-16T15:40:31.154Z,16.73
2022-09-16T15:43:04.921Z,16.44
2022-09-16T15:45:34.271Z,16.21
2022-09-16T15:48:08.475Z,16.08
2022-09-16T15:50:47.499Z,16.02
2022-09-16T15:53:41.815Z,16.08
2022-09-16T15:56:44.639Z,16.14
2022-09-16T15:59:36.169Z,16.11
2022-09-16T16:02:22.116Z,16.13
2022-09-16T16:04:52.229Z,16.10
2022-09-16T16:08:03.136Z,16.05
2022-09-16T16:10:36.396Z,16.04
2022-09-16T16:13:06.574Z,16.01
2022-09-16T16:15:42.096Z,16.13
2022-09-16T16:18:12.185Z,16.18
2022-09-16T16:20:41.790Z,16.12
2022-09-16T16:23:13.052Z,16.11
2022-09-16T16:25:42.752Z,16.03
2022-09-16T16:28:12.221Z,15.95
2022-09-16T16:30:42.164Z,15.86
2022-09-16T16:33:11.660Z,15.86
2022-09-16T16:35:40.995Z,15.85
2022-09-16T16:38:13.489Z,15.87
2022-09-16T16:40:42.767Z,15.95
2022-09-16T16:43:12.036Z,16.08
2022-09-16T16:45:41.386Z,16.25
2022-09-16T16:48:11.138Z,16.40
2022-09-16T16:50:40.429Z,16.45
2022-09-16T16:53:09.876Z,16.57
2022-09-16T16:55:39.182Z,16.65
2022-09-16T16:58:08.474Z,16.73
2022-09-16T17:00:37.942Z,16.87
2022-09-16T17:03:07.378Z,16.86
2022-09-16T17:05:36.747Z,16.73
2022-09-16T17:08:06.318Z,16.64
2022-09-16T17:10:35.908Z,16.40
2022-09-16T17:13:05.247Z,16.31
2022-09-16T17:15:34.607Z,16.12
2022-09-16T17:18:04.142Z,15.81
2022-09-16T17:20:33.410Z,15.52
2022-09-16T17:23:02.747Z,15.37
2022-09-16T17:25:32.744Z,15.31
2022-09-16T17:28:02.067Z,15.18
2022-09-16T17:30:31.344Z,15.11
2022-09-16T17:33:00.604Z,15.00
2022-09-16T17:35:29.856Z,14.88
2022-09-16T17:38:01.612Z,14.76
2022-09-16T17:40:34.642Z,14.66
2022-09-16T17:43:04.290Z,14.59
2022-09-16T17:45:36.206Z,14.54
2022-09-16T17:48:05.891Z,14.54
2022-09-16T17:50:35.180Z,14.55
2022-09-16T17:53:04.468Z,14.54
2022-09-16T17:55:35.199Z,14.53
2022-09-16T17:58:04.532Z,14.57
2022-09-16T18:00:33.879Z,14.58
2022-09-16T18:03:03.638Z,14.51
2022-09-16T18:05:36.342Z,14.49
2022-09-16T18:08:06.667Z,14.45
2022-09-16T18:10:36.540Z,14.43
2022-09-16T18:13:05.889Z,14.43
2022-09-16T18:15:35.365Z,14.38
2022-09-16T18:18:04.690Z,14.32
2022-09-16T18:20:33.942Z,14.27
2022-09-16T18:23:03.261Z,14.22
2022-09-16T18:25:32.527Z,14.17
2022-09-16T18:28:01.787Z,14.12
2022-09-16T18:30:31.122Z,14.09
2022-09-16T18:33:00.484Z,14.02
2022-09-16T18:35:30.245Z,13.96
2022-09-16T18:37:59.525Z,13.91
2022-09-16T18:40:28.958Z,13.85
2022-09-16T18:42:58.358Z,13.77
2022-09-16T18:45:27.838Z,13.74
2022-09-16T18:47:57.548Z,13.50
2022-09-16T18:50:26.945Z,13.63
2022-09-16T18:52:56.245Z,13.57
2022-09-16T18:55:26.674Z,13.59
2022-09-16T18:57:55.911Z,13.54
2022-09-16T19:00:25.232Z,13.51
2022-09-16T19:02:55.913Z,13.46
2022-09-16T19:05:25.371Z,13.43
2022-09-16T19:07:54.638Z,13.40
2022-09-16T19:10:23.919Z,13.40
2022-09-16T19:12:53.239Z,13.32
2022-09-16T19:15:32.038Z,13.28
2022-09-16T19:18:01.327Z,13.22
2022-09-16T19:20:33.954Z,13.19
2022-09-16T19:23:03.270Z,13.17
2022-09-16T19:25:32.675Z,13.09
2022-09-16T19:28:01.956Z,13.09
2022-09-16T19:30:31.610Z,13.05
2022-09-16T19:33:01.021Z,13.01
2022-09-16T19:35:33.802Z,12.93
2022-09-16T19:38:04.638Z,12.93
2022-09-16T19:40:34.041Z,12.86
2022-09-16T19:43:03.364Z,12.83
2022-09-16T19:45:32.827Z,12.88
2022-09-16T19:48:02.177Z,12.84
2022-09-16T19:50:31.485Z,12.73
2022-09-16T19:53:00.913Z,12.78
2022-09-16T19:55:30.238Z,12.73
2022-09-16T19:57:59.577Z,12.61
2022-09-16T20:00:41.494Z,12.67
2022-09-16T20:03:19.368Z,12.65
2022-09-16T20:05:48.646Z,12.58
2022-09-16T20:08:18.008Z,12.57
2022-09-16T20:10:47.388Z,12.59
2022-09-16T20:13:16.916Z,12.61
2022-09-16T20:15:46.292Z,12.66
2022-09-16T20:18:15.539Z,12.62
2022-09-16T20:20:49.140Z,12.62
2022-09-16T20:23:20.170Z,12.62
2022-09-16T20:26:00.748Z,12.73
2022-09-16T20:28:42.941Z,12.76
2022-09-16T20:31:14.757Z,12.82
2022-09-16T20:33:47.391Z,12.81
2022-09-16T20:36:19.498Z,12.81
2022-09-16T20:38:50.022Z,12.81
2022-09-16T20:41:19.350Z,12.88
2022-09-16T20:44:07.110Z,12.87
2022-09-16T20:46:39.558Z,12.88
2022-09-16T20:49:12.561Z,12.99
2022-09-16T20:51:42.117Z,12.96
2022-09-16T20:54:13.896Z,12.95
2022-09-16T20:56:45.702Z,12.94
2022-09-16T20:59:17.090Z,12.93
2022-09-16T21:01:47.164Z,12.92
2022-09-16T21:04:18.893Z,12.93
2022-09-16T21:06:48.891Z,12.92
2022-09-16T21:09:19.207Z,12.92
2022-09-16T21:11:50.189Z,12.89
2022-09-16T21:14:22.835Z,12.90
2022-09-16T21:16:52.672Z,12.93
2022-09-16T21:19:22.039Z,12.96
2022-09-16T21:22:03.614Z,12.98
2022-09-16T21:24:32.912Z,13.00
2022-09-16T21:27:02.205Z,13.02
2022-09-16T21:29:31.985Z,13.02
2022-09-16T21:32:02.029Z,13.06
2022-09-16T21:34:40.959Z,13.07
2022-09-16T21:37:10.479Z,13.08
2022-09-16T21:39:42.640Z,13.13
2022-09-16T21:42:11.999Z,13.14
2022-09-16T21:44:41.260Z,13.18
2022-09-16T21:47:14.427Z,13.20
2022-09-16T21:49:43.793Z,13.23
2022-09-16T21:52:13.126Z,13.25
2022-09-16T21:54:42.583Z,13.18
2022-09-16T21:57:14.530Z,13.11
2022-09-16T21:59:43.925Z,13.10
2022-09-16T22:02:13.425Z,13.06
2022-09-16T22:04:42.762Z,13.07
2022-09-16T22:07:12.037Z,13.12
2022-09-16T22:09:42.742Z,13.10
2022-09-16T22:12:12.063Z,13.09
2022-09-16T22:14:41.675Z,13.13
2022-09-16T22:17:11.538Z,13.16
2022-09-16T22:19:40.971Z,13.20
2022-09-16T22:22:11.674Z,13.25
2022-09-16T22:24:41.351Z,13.25
2022-09-16T22:27:10.776Z,13.30
2022-09-16T22:29:40.052Z,13.28
2022-09-16T22:32:09.344Z,13.32
2022-09-16T22:34:38.638Z,13.33
2022-09-16T22:37:09.291Z,13.25
2022-09-16T22:39:38.628Z,13.15
2022-09-16T22:42:08.151Z,13.18
2022-09-16T22:44:37.400Z,13.20
2022-09-16T22:47:06.834Z,13.19
2022-09-16T22:49:36.303Z,13.15
2022-09-16T22:52:05.715Z,13.06
2022-09-16T22:54:35.071Z,13.07
2022-09-16T22:57:04.343Z,13.02
2022-09-16T22:59:33.652Z,12.90
2022-09-16T23:02:03.195Z,12.87
2022-09-16T23:04:32.578Z,12.93
2022-09-16T23:07:01.930Z,12.94
2022-09-16T23:09:31.246Z,12.91
2022-09-16T23:12:00.530Z,12.88
2022-09-16T23:14:29.788Z,12.88
2022-09-16T23:16:59.134Z,12.83
2022-09-16T23:19:28.474Z,12.79
2022-09-16T23:21:57.744Z,12.74
2022-09-16T23:24:27.199Z,12.73
2022-09-16T23:26:56.458Z,12.68
2022-09-16T23:29:25.852Z,12.62
2022-09-16T23:31:57.160Z,12.60
2022-09-16T23:34:26.536Z,12.57
2022-09-16T23:36:55.856Z,12.51
2022-09-16T23:39:25.187Z,12.47
2022-09-16T23:41:54.475Z,12.45
2022-09-16T23:44:25.644Z,12.41
2022-09-16T23:46:55.045Z,12.39
2022-09-16T23:49:24.407Z,12.39
2022-09-16T23:51:53.663Z,12.36
2022-09-16T23:54:23.191Z,12.40
2022-09-16T23:56:52.441Z,12.37
2022-09-16T23:59:21.688Z,12.27
